Time;durP1;ratioP1;P1;durP2;ratioP2;P2;SDS_P1;SDS_P2;PMS_P1;PMS_P2;Temp;Humidity;BMP_temperature;BMP_pressure;BME280_temperature;BME280_humidity;BME280_pressure;Samples;Min_cycle;Max_cycle;Signal;HPM_P1;HPM_P2
2022/01/11 00:02:13;;;;;;;17.83;9.50;;;4.50;99.90;;;;;;4995877;28;20693;-79
2022/01/11 00:04:38;;;;;;;17.92;10.93;;;4.40;99.90;;;;;;5011097;28;20173;-78
2022/01/11 00:07:07;;;;;;;16.33;10.20;;;4.50;99.90;;;;;;4995354;28;20514;-80
2022/01/11 00:09:39;;;;;;;12.82;9.68;;;4.30;99.90;;;;;;4995527;28;20221;-79
2022/01/11 00:12:07;;;;;;;11.50;9.98;;;4.30;99.90;;;;;;4995338;28;20165;-80
2022/01/11 00:14:33;;;;;;;11.52;8.45;;;4.20;99.90;;;;;;5010427;28;20176;-79
2022/01/11 00:16:59;;;;;;;14.98;10.30;;;4.20;99.90;;;;;;4995508;28;20165;-80
2022/01/11 00:19:28;;;;;;;21.92;9.98;;;4.20;99.90;;;;;;5010360;28;20177;-80
2022/01/11 00:21:54;;;;;;;13.10;9.18;;;4.50;99.90;;;;;;5010607;28;20177;-79
2022/01/11 00:24:33;;;;;;;13.02;8.85;;;4.30;99.90;;;;;;4995311;28;20161;-79
2022/01/11 00:26:59;;;;;;;10.82;8.68;;;4.50;99.90;;;;;;4995184;28;20243;-79
2022/01/11 00:29:25;;;;;;;11.57;9.20;;;4.80;99.90;;;;;;4994947;28;20671;-80
2022/01/11 00:31:51;;;;;;;11.95;8.45;;;4.90;99.90;;;;;;4995237;28;20295;-81
2022/01/11 00:34:19;;;;;;;15.27;8.48;;;4.70;99.90;;;;;;5010265;28;20264;-81
2022/01/11 00:36:45;;;;;;;10.52;8.98;;;4.40;99.90;;;;;;4995307;28;20528;-80
2022/01/11 00:39:11;;;;;;;16.92;9.50;;;4.20;99.90;;;;;;4994628;28;20161;-80
2022/01/11 00:41:41;;;;;;;10.07;8.95;;;4.20;99.90;;;;;;4995121;28;20169;-81
2022/01/11 00:44:07;;;;;;;19.42;8.55;;;4.20;99.90;;;;;;4995071;28;20171;-81
2022/01/11 00:46:33;;;;;;;19.70;9.13;;;4.20;99.90;;;;;;5009926;28;20634;-80
2022/01/11 00:48:59;;;;;;;10.30;8.52;;;4.30;99.90;;;;;;4994838;28;20216;-81
2022/01/11 00:51:25;;;;;;;14.13;9.10;;;4.40;99.90;;;;;;4994882;28;20587;-81
2022/01/11 00:53:52;;;;;;;11.20;8.05;;;4.00;99.90;;;;;;4994993;28;20173;-78
2022/01/11 00:56:18;;;;;;;9.95;8.75;;;3.90;99.90;;;;;;4994705;28;20228;-79
2022/01/11 00:58:44;;;;;;;20.10;9.15;;;3.90;99.90;;;;;;4994723;28;20166;-80
2022/01/11 01:01:10;;;;;;;9.13;8.13;;;3.80;99.90;;;;;;4994622;28;20672;-79
2022/01/11 01:03:35;;;;;;;10.90;7.82;;;3.70;99.90;;;;;;5009490;28;20213;-80
2022/01/11 01:06:02;;;;;;;14.70;9.55;;;3.90;99.90;;;;;;4994108;28;20157;-79
2022/01/11 01:08:28;;;;;;;15.00;8.82;;;4.10;99.90;;;;;;4994459;28;20209;-79
2022/01/11 01:10:53;;;;;;;12.25;8.70;;;4.10;99.90;;;;;;4994357;28;20240;-79
2022/01/11 01:13:23;;;;;;;14.20;8.93;;;4.20;99.90;;;;;;5009641;28;20187;-79
2022/01/11 01:15:50;;;;;;;10.80;9.45;;;4.30;99.90;;;;;;4994061;28;20634;-78
2022/01/11 01:18:21;;;;;;;10.45;8.40;;;4.40;99.90;;;;;;4994470;28;20519;-79
2022/01/11 01:20:47;;;;;;;19.20;9.02;;;4.10;99.90;;;;;;4994177;28;20764;-80
2022/01/11 01:23:13;;;;;;;11.10;8.43;;;4.20;99.90;;;;;;4994455;28;20252;-79
2022/01/11 01:25:40;;;;;;;16.38;9.13;;;4.40;99.90;;;;;;4994328;28;20193;-79
2022/01/11 01:28:06;;;;;;;14.18;8.98;;;4.20;99.90;;;;;;4994337;28;20209;-79
2022/01/11 01:30:32;;;;;;;16.63;10.00;;;4.30;99.90;;;;;;4994062;28;20569;-79
2022/01/11 01:32:58;;;;;;;16.55;9.48;;;4.40;99.90;;;;;;4994295;28;20172;-79
2022/01/11 01:35:28;;;;;;;19.23;8.80;;;4.30;99.90;;;;;;5009094;28;20259;-79
2022/01/11 01:37:54;;;;;;;11.10;8.68;;;4.10;99.90;;;;;;4994229;28;20169;-79
2022/01/11 01:40:19;;;;;;;16.33;9.23;;;4.20;99.90;;;;;;4994098;28;20540;-79
2022/01/11 01:42:47;;;;;;;9.32;8.30;;;4.00;99.90;;;;;;4993956;28;20184;-78
2022/01/11 01:45:14;;;;;;;16.63;9.02;;;3.90;99.90;;;;;;5008990;28;20169;-79
2022/01/11 01:47:40;;;;;;;13.88;9.60;;;3.90;99.90;;;;;;4993985;28;20259;-79
2022/01/11 01:50:07;;;;;;;16.25;10.07;;;3.70;99.90;;;;;;4993743;28;20201;-79
2022/01/11 01:52:34;;;;;;;12.55;9.02;;;3.90;99.90;;;;;;5009020;28;20251;-80
2022/01/11 01:55:00;;;;;;;13.70;9.68;;;4.00;99.90;;;;;;5009029;28;20181;-79
2022/01/11 01:57:26;;;;;;;15.93;9.70;;;3.90;99.90;;;;;;4993837;28;20169;-80
2022/01/11 01:59:52;;;;;;;14.98;10.10;;;4.00;99.90;;;;;;4993570;28;20204;-79
2022/01/11 02:02:18;;;;;;;17.90;10.07;;;4.00;99.90;;;;;;4993862;28;20533;-79
2022/01/11 02:04:44;;;;;;;13.88;9.10;;;4.00;99.90;;;;;;5008632;28;20268;-79
2022/01/11 02:07:10;;;;;;;13.40;9.00;;;4.20;99.90;;;;;;4993448;28;20215;-80
2022/01/11 02:09:36;;;;;;;18.30;8.70;;;4.30;99.90;;;;;;5008176;28;20674;-80
2022/01/11 02:12:02;;;;;;;12.02;9.70;;;3.90;99.90;;;;;;4993367;28;20515;-79
2022/01/11 02:14:28;;;;;;;13.98;9.00;;;3.90;99.90;;;;;;4993442;28;20173;-80
2022/01/11 02:16:56;;;;;;;13.25;8.63;;;4.20;99.90;;;;;;5008616;28;20169;-79
2022/01/11 02:19:22;;;;;;;11.88;9.25;;;4.50;99.90;;;;;;5008312;28;20196;-79
2022/01/11 02:21:48;;;;;;;15.43;9.13;;;4.60;99.90;;;;;;5008323;28;20235;-79
2022/01/11 02:24:13;;;;;;;13.50;9.15;;;4.50;99.90;;;;;;4993420;28;20260;-79
2022/01/11 02:26:39;;;;;;;13.90;8.57;;;4.30;99.90;;;;;;4993258;28;20184;-79
2022/01/11 02:29:04;;;;;;;12.10;9.00;;;4.30;99.90;;;;;;5008138;28;20205;-79
2022/01/11 02:31:30;;;;;;;16.15;9.30;;;4.30;99.90;;;;;;5008089;28;20812;-79
2022/01/11 02:33:58;;;;;;;12.82;8.70;;;4.40;99.90;;;;;;4993278;28;20176;-80
2022/01/11 02:36:30;;;;;;;14.63;9.77;;;4.40;99.90;;;;;;4993289;28;20180;-79
2022/01/11 02:38:57;;;;;;;13.43;9.23;;;4.30;99.90;;;;;;4993283;28;20169;-80
2022/01/11 02:41:27;;;;;;;14.15;8.77;;;4.20;99.90;;;;;;4992997;28;20214;-79
2022/01/11 02:43:53;;;;;;;14.80;9.05;;;4.20;99.90;;;;;;4993366;28;20236;-80
2022/01/11 02:46:20;;;;;;;15.73;10.57;;;4.50;99.90;;;;;;4993178;28;20288;-79
2022/01/11 02:48:47;;;;;;;12.20;9.68;;;4.50;99.90;;;;;;5008164;28;20213;-80
2022/01/11 02:51:12;;;;;;;11.85;8.18;;;4.60;99.90;;;;;;4992946;28;20272;-79
2022/01/11 02:53:43;;;;;;;13.52;9.18;;;4.40;99.90;;;;;;5008310;28;20685;-80
2022/01/11 02:56:09;;;;;;;12.70;9.18;;;4.50;99.90;;;;;;4993066;28;20257;-79
2022/01/11 02:58:35;;;;;;;12.43;8.50;;;4.50;99.90;;;;;;4992916;28;20169;-80
2022/01/11 03:01:01;;;;;;;13.07;8.32;;;4.50;99.90;;;;;;4993979;28;20268;-79
2022/01/11 03:03:27;;;;;;;8.32;7.45;;;4.50;99.90;;;;;;4996864;28;20169;-79
2022/01/11 03:06:02;;;;;;;8.52;6.57;;;4.60;99.90;;;;;;4996577;28;20626;-79
2022/01/11 03:08:31;;;;;;;10.82;7.03;;;4.40;99.90;;;;;;4996572;28;20208;-80
2022/01/11 03:10:58;;;;;;;9.02;6.97;;;4.20;99.90;;;;;;4996419;28;20181;-80
2022/01/11 03:13:24;;;;;;;8.15;6.75;;;4.30;99.90;;;;;;5012124;28;20173;-79
2022/01/11 03:15:51;;;;;;;13.85;8.20;;;4.40;99.90;;;;;;4996825;28;20165;-79
2022/01/11 03:18:17;;;;;;;13.80;7.68;;;4.10;99.90;;;;;;4996640;28;20208;-81
2022/01/11 03:20:45;;;;;;;12.35;8.10;;;4.30;99.90;;;;;;4996371;28;20670;-79
2022/01/11 03:23:12;;;;;;;12.13;8.00;;;4.10;99.90;;;;;;4996499;28;20180;-79
2022/01/11 03:25:38;;;;;;;10.63;7.70;;;4.00;99.90;;;;;;4996768;28;20653;-80
2022/01/11 03:28:04;;;;;;;12.20;8.23;;;3.90;99.90;;;;;;4996210;28;20201;-79
2022/01/11 03:30:30;;;;;;;13.73;7.82;;;3.80;99.90;;;;;;4996322;28;20193;-81
2022/01/11 03:32:56;;;;;;;12.95;7.93;;;3.90;99.90;;;;;;4996574;28;20169;-80
2022/01/11 03:35:21;;;;;;;12.35;8.13;;;4.10;99.90;;;;;;4996264;28;20211;-81
2022/01/11 03:37:47;;;;;;;10.50;8.27;;;4.30;99.90;;;;;;4996415;28;20589;-81
2022/01/11 03:40:19;;;;;;;9.63;8.15;;;4.40;99.90;;;;;;4996132;28;20642;-79
2022/01/11 03:42:46;;;;;;;14.13;8.75;;;4.50;99.90;;;;;;4996551;28;20180;-79
2022/01/11 03:45:13;;;;;;;12.27;8.05;;;4.50;99.90;;;;;;4995907;28;20181;-80
2022/01/11 03:47:39;;;;;;;15.40;8.13;;;4.70;99.90;;;;;;5010709;28;20213;-80
2022/01/11 03:50:07;;;;;;;13.38;8.50;;;4.80;99.90;;;;;;4996188;28;20181;-79
2022/01/11 03:52:34;;;;;;;13.63;7.50;;;4.60;99.90;;;;;;4995932;28;20623;-80
2022/01/11 03:57:30;;;;;;;11.80;7.45;;;4.50;99.90;;;;;;4995787;28;20646;-81
2022/01/11 04:00:00;;;;;;;11.18;6.63;;;4.40;99.90;;;;;;5011092;28;20705;-80
2022/01/11 04:02:26;;;;;;;11.27;7.55;;;4.40;99.90;;;;;;4995771;28;20180;-80
2022/01/11 04:04:53;;;;;;;8.45;7.57;;;4.50;99.90;;;;;;4995503;28;20169;-79
2022/01/11 04:07:20;;;;;;;17.75;7.75;;;4.70;99.90;;;;;;4995496;28;20177;-79
2022/01/11 04:09:46;;;;;;;12.70;7.15;;;4.70;99.90;;;;;;4996129;28;20197;-81
2022/01/11 04:12:12;;;;;;;11.85;7.25;;;4.70;99.90;;;;;;4994692;28;20169;-80
2022/01/11 04:14:38;;;;;;;11.85;6.93;;;4.70;99.90;;;;;;5010526;28;20176;-79
2022/01/11 04:17:04;;;;;;;13.20;7.05;;;4.70;99.90;;;;;;5010498;28;20165;-79
2022/01/11 04:19:29;;;;;;;11.80;7.60;;;4.50;99.90;;;;;;4995391;28;20195;-79
2022/01/11 04:21:55;;;;;;;8.90;6.85;;;4.50;99.90;;;;;;4995239;28;20537;-80
2022/01/11 04:24:21;;;;;;;11.13;6.95;;;4.40;99.90;;;;;;4995378;28;20670;-80
2022/01/11 04:26:46;;;;;;;12.23;6.97;;;4.20;99.90;;;;;;4995358;28;20173;-80
2022/01/11 04:29:12;;;;;;;13.48;6.80;;;4.20;99.90;;;;;;5009919;28;20658;-79
2022/01/11 04:31:38;;;;;;;10.40;7.53;;;4.10;99.90;;;;;;4995319;28;20235;-79
2022/01/11 04:34:04;;;;;;;10.30;6.28;;;4.40;99.90;;;;;;4995136;28;20256;-79
2022/01/11 04:36:30;;;;;;;14.02;6.93;;;4.20;99.90;;;;;;4995148;28;20657;-80
2022/01/11 04:38:55;;;;;;;12.65;7.43;;;4.10;99.90;;;;;;4995201;28;20249;-80
2022/01/11 04:41:21;;;;;;;10.43;6.38;;;4.00;99.90;;;;;;4995269;28;20252;-81
2022/01/11 04:43:47;;;;;;;11.50;7.63;;;3.80;99.90;;;;;;4995311;28;20243;-80
2022/01/11 04:46:18;;;;;;;11.82;7.20;;;4.00;99.90;;;;;;4994869;28;20256;-79
2022/01/11 04:48:44;;;;;;;9.25;6.70;;;4.10;99.90;;;;;;4994926;28;20233;-79
2022/01/11 04:51:10;;;;;;;12.75;7.30;;;4.30;99.90;;;;;;4994916;28;20216;-79
2022/01/11 04:53:35;;;;;;;13.40;7.80;;;4.40;99.90;;;;;;4995035;28;20534;-79
2022/01/11 04:56:01;;;;;;;8.60;6.88;;;4.10;99.90;;;;;;4994723;28;20177;-79
2022/01/11 04:58:27;;;;;;;10.82;6.78;;;4.00;99.90;;;;;;5009985;28;20235;-79
2022/01/11 05:00:52;;;;;;;11.23;6.72;;;4.10;99.90;;;;;;4994953;28;20200;-79
2022/01/11 05:03:21;;;;;;;9.35;7.57;;;3.80;99.90;;;;;;4994609;28;20259;-80
2022/01/11 05:05:47;;;;;;;8.88;7.35;;;3.90;99.90;;;;;;4994626;28;20185;-79
2022/01/11 05:08:13;;;;;;;10.05;7.88;;;4.00;99.90;;;;;;5009583;28;20205;-79
2022/01/11 05:10:42;;;;;;;16.13;7.57;;;3.90;99.90;;;;;;5009296;28;20216;-80
2022/01/11 05:13:12;;;;;;;13.07;8.00;;;3.80;99.90;;;;;;4995106;28;20157;-79
2022/01/11 05:15:39;;;;;;;10.18;8.32;;;4.00;99.90;;;;;;4994203;28;20259;-79
2022/01/11 05:18:06;;;;;;;11.65;7.97;;;3.90;99.90;;;;;;4994287;28;20170;-79
2022/01/11 05:20:32;;;;;;;19.73;8.32;;;4.00;99.90;;;;;;5008998;28;20207;-81
2022/01/11 05:22:57;;;;;;;15.15;7.95;;;3.90;99.90;;;;;;4994175;28;20169;-79
2022/01/11 05:25:23;;;;;;;18.70;8.68;;;3.90;99.90;;;;;;4994204;28;20227;-79
2022/01/11 05:27:49;;;;;;;11.98;8.15;;;3.90;99.90;;;;;;5009293;28;20197;-81
2022/01/11 05:30:14;;;;;;;12.23;7.63;;;3.70;99.90;;;;;;4993821;28;20228;-79
2022/01/11 05:32:42;;;;;;;14.68;7.70;;;3.70;99.90;;;;;;4993974;28;20248;-79
2022/01/11 05:35:09;;;;;;;17.27;9.27;;;3.70;99.90;;;;;;4994067;28;20223;-79
2022/01/11 05:37:35;;;;;;;14.40;8.48;;;3.90;99.90;;;;;;5008989;28;20184;-79
2022/01/11 05:40:01;;;;;;;16.75;9.00;;;4.00;99.90;;;;;;4993640;28;20185;-79
2022/01/11 05:42:27;;;;;;;19.10;9.02;;;4.00;99.90;;;;;;4993545;28;20172;-79
2022/01/11 05:44:53;;;;;;;13.50;8.98;;;4.00;99.90;;;;;;5008570;28;20544;-79
2022/01/11 05:47:19;;;;;;;16.08;8.43;;;4.10;99.90;;;;;;4993638;28;20212;-79
2022/01/11 05:49:45;;;;;;;15.88;8.70;;;4.10;99.90;;;;;;4993419;28;20233;-79
2022/01/11 05:52:10;;;;;;;11.35;8.52;;;4.10;99.90;;;;;;4993141;28;20888;-79
2022/01/11 05:54:36;;;;;;;15.50;9.15;;;4.20;99.90;;;;;;4993684;28;20500;-79
2022/01/11 05:57:03;;;;;;;14.75;9.45;;;4.10;99.90;;;;;;5008634;28;20224;-79
2022/01/11 05:59:29;;;;;;;17.50;9.52;;;4.00;99.90;;;;;;4993471;28;20668;-78
2022/01/11 06:01:54;;;;;;;15.63;9.30;;;4.00;99.90;;;;;;5008565;28;20223;-80
2022/01/11 06:04:20;;;;;;;16.35;9.77;;;4.10;99.90;;;;;;4993320;28;20181;-80
2022/01/11 06:06:46;;;;;;;16.73;10.25;;;4.00;99.90;;;;;;4993459;28;20184;-80
2022/01/11 06:09:11;;;;;;;20.05;8.88;;;3.80;99.90;;;;;;4992893;28;20745;-79
2022/01/11 06:11:37;;;;;;;11.90;8.52;;;3.80;99.90;;;;;;4992733;28;20169;-79
2022/01/11 06:14:03;;;;;;;23.10;11.25;;;3.80;99.90;;;;;;4993160;28;20184;-79
2022/01/11 06:16:28;;;;;;;33.97;11.82;;;3.80;99.90;;;;;;4993278;28;20165;-79
2022/01/11 06:18:54;;;;;;;24.13;8.50;;;3.90;99.90;;;;;;4993291;28;20535;-79
2022/01/11 06:21:20;;;;;;;22.25;9.60;;;4.00;99.90;;;;;;5008043;28;20335;-79
2022/01/11 06:23:46;;;;;;;20.80;7.85;;;4.00;99.90;;;;;;4993143;28;20182;-79
2022/01/11 06:26:13;;;;;;;16.60;8.80;;;3.90;99.90;;;;;;4993425;28;20173;-79
2022/01/11 06:28:39;;;;;;;19.10;9.23;;;4.00;99.90;;;;;;4993268;28;20205;-80
2022/01/11 06:31:05;;;;;;;17.92;8.48;;;4.20;99.90;;;;;;4992881;28;20649;-78
2022/01/11 06:33:31;;;;;;;20.15;8.80;;;4.40;99.90;;;;;;5007870;28;20539;-80
2022/01/11 06:35:56;;;;;;;13.52;8.85;;;4.20;99.90;;;;;;4992225;28;20177;-79
2022/01/11 06:38:22;;;;;;;18.08;9.25;;;4.10;99.90;;;;;;5007496;28;20173;-79
2022/01/11 06:40:47;;;;;;;15.57;9.52;;;4.20;99.90;;;;;;4992457;28;20542;-80
2022/01/11 06:43:13;;;;;;;14.38;9.15;;;4.20;99.90;;;;;;5007628;28;20276;-79
2022/01/11 06:45:39;;;;;;;11.88;7.82;;;4.40;99.90;;;;;;4992447;28;20161;-80
2022/01/11 06:48:05;;;;;;;14.10;8.00;;;4.60;99.90;;;;;;4992427;28;20212;-79
2022/01/11 06:50:31;;;;;;;12.07;8.18;;;4.40;99.90;;;;;;5007426;28;20189;-80
2022/01/11 06:52:56;;;;;;;10.70;7.78;;;4.40;99.90;;;;;;5007453;28;20297;-82
2022/01/11 06:55:22;;;;;;;10.07;7.60;;;4.50;99.90;;;;;;4992196;28;20634;-80
2022/01/11 06:57:48;;;;;;;14.07;7.53;;;4.40;99.90;;;;;;4992684;28;20779;-81
2022/01/11 07:00:15;;;;;;;14.07;8.60;;;4.40;99.90;;;;;;4992430;28;20246;-80
2022/01/11 07:02:41;;;;;;;11.93;7.75;;;4.70;99.90;;;;;;4992689;28;20184;-79
2022/01/11 07:05:07;;;;;;;18.95;8.90;;;4.80;99.90;;;;;;4992581;28;20297;-81
2022/01/11 07:07:34;;;;;;;13.93;7.70;;;4.80;99.90;;;;;;5007628;28;20174;-80
2022/01/11 07:10:00;;;;;;;14.43;8.30;;;4.50;99.90;;;;;;4992921;28;20276;-80
2022/01/11 07:12:25;;;;;;;13.60;8.88;;;4.40;99.90;;;;;;5008075;28;20315;-80
2022/01/11 07:14:51;;;;;;;13.60;8.05;;;4.60;99.90;;;;;;4992324;28;20552;-80
2022/01/11 07:17:17;;;;;;;15.40;8.18;;;4.70;99.90;;;;;;4992194;28;20161;-79
2022/01/11 07:19:42;;;;;;;11.52;8.00;;;4.60;99.90;;;;;;4992410;28;20200;-79
2022/01/11 07:22:09;;;;;;;16.42;8.07;;;4.70;99.90;;;;;;4992069;28;20551;-80
2022/01/11 07:24:35;;;;;;;14.63;8.43;;;4.60;99.90;;;;;;4992085;28;20187;-80
2022/01/11 07:27:00;;;;;;;12.75;8.00;;;4.50;99.90;;;;;;4992010;28;20630;-81
2022/01/11 07:29:26;;;;;;;13.10;8.25;;;4.60;99.90;;;;;;5006660;28;20211;-80
2022/01/11 07:31:52;;;;;;;13.20;7.85;;;4.60;99.90;;;;;;5007079;28;20173;-79
2022/01/11 07:34:18;;;;;;;13.35;8.63;;;4.60;99.90;;;;;;4984270;28;20240;-80
2022/01/11 07:36:44;;;;;;;19.17;8.98;;;4.60;99.90;;;;;;4987770;28;20253;-80
2022/01/11 07:39:14;;;;;;;19.52;9.32;;;4.70;99.90;;;;;;4972036;28;20229;-80
2022/01/11 07:41:41;;;;;;;26.50;11.02;;;4.80;99.90;;;;;;4987622;28;20603;-80
2022/01/11 07:44:07;;;;;;;12.32;8.32;;;4.80;99.90;;;;;;4972151;28;20178;-80
2022/01/11 07:46:33;;;;;;;17.48;10.50;;;4.60;99.90;;;;;;4975216;28;20177;-85
2022/01/11 07:48:59;;;;;;;11.23;8.68;;;4.70;99.90;;;;;;4989871;28;20219;-81
2022/01/11 07:51:26;;;;;;;12.20;8.32;;;4.70;99.90;;;;;;4982908;28;20189;-81
2022/01/11 07:53:52;;;;;;;13.38;8.50;;;4.60;99.90;;;;;;4975716;28;20248;-81
2022/01/11 07:56:19;;;;;;;12.63;8.48;;;4.80;99.90;;;;;;4975547;28;20529;-81
2022/01/11 07:58:44;;;;;;;8.52;7.28;;;4.90;99.90;;;;;;4975865;28;20248;-82
2022/01/11 08:01:10;;;;;;;17.73;8.73;;;4.80;99.90;;;;;;4990638;28;20288;-79
2022/01/11 08:03:36;;;;;;;10.52;8.40;;;4.60;99.90;;;;;;4990574;28;20758;-80
2022/01/11 08:06:02;;;;;;;17.17;9.10;;;4.80;99.90;;;;;;4990787;28;20174;-79
2022/01/11 08:08:28;;;;;;;13.30;8.98;;;4.90;99.90;;;;;;4976036;28;20209;-81
2022/01/11 08:10:55;;;;;;;15.68;9.10;;;4.60;99.90;;;;;;4975153;28;20272;-81
2022/01/11 08:13:24;;;;;;;16.20;8.77;;;4.70;99.90;;;;;;4989421;28;20549;-80
2022/01/11 08:15:50;;;;;;;11.98;7.60;;;4.70;99.90;;;;;;4976123;28;20178;-79
2022/01/11 08:18:16;;;;;;;14.23;9.25;;;4.80;99.90;;;;;;4975611;28;20244;-79
2022/01/11 08:20:43;;;;;;;14.30;8.73;;;4.70;99.90;;;;;;4974189;28;20677;-79
2022/01/11 08:23:10;;;;;;;14.07;9.77;;;4.90;99.90;;;;;;4990409;28;20734;-80
2022/01/11 08:25:36;;;;;;;13.80;8.75;;;4.80;99.90;;;;;;4975983;28;20643;-80
2022/01/11 08:28:01;;;;;;;13.27;8.57;;;4.80;99.90;;;;;;4975538;28;20201;-78
2022/01/11 08:30:27;;;;;;;16.75;9.23;;;4.90;99.90;;;;;;4975242;28;20239;-79
2022/01/11 08:32:53;;;;;;;13.90;8.88;;;4.80;99.90;;;;;;4974225;28;20189;-78
2022/01/11 08:35:19;;;;;;;14.88;8.77;;;4.70;99.90;;;;;;4975763;28;20297;-79
2022/01/11 08:37:44;;;;;;;11.98;9.13;;;4.40;99.90;;;;;;4975769;28;20174;-79
2022/01/11 08:40:12;;;;;;;16.05;8.98;;;4.50;99.90;;;;;;4975646;28;20217;-79
2022/01/11 08:42:38;;;;;;;14.15;8.65;;;4.50;99.90;;;;;;4975156;28;20165;-80
2022/01/11 08:45:04;;;;;;;15.95;9.45;;;4.60;99.90;;;;;;4990652;28;20188;-79
2022/01/11 08:47:30;;;;;;;14.30;9.07;;;4.70;99.90;;;;;;4975695;28;20174;-79
2022/01/11 08:49:59;;;;;;;18.17;9.00;;;4.80;99.90;;;;;;4975315;28;20264;-79
2022/01/11 08:52:26;;;;;;;16.80;8.98;;;4.90;99.90;;;;;;4975526;28;20220;-79
2022/01/11 08:54:51;;;;;;;15.35;8.95;;;5.20;99.90;;;;;;4975495;28;20181;-79
2022/01/11 08:57:19;;;;;;;14.38;9.20;;;5.40;99.90;;;;;;4990105;28;20170;-79
2022/01/11 08:59:45;;;;;;;13.02;8.55;;;5.50;99.90;;;;;;4974561;28;20197;-79
2022/01/11 09:02:12;;;;;;;17.70;9.07;;;5.40;99.90;;;;;;4975116;28;20689;-79
2022/01/11 09:04:38;;;;;;;14.88;8.82;;;5.10;99.90;;;;;;4975318;28;20174;-79
2022/01/11 09:07:04;;;;;;;17.17;9.68;;;5.00;99.90;;;;;;4989913;28;20185;-79
2022/01/11 09:09:31;;;;;;;15.07;8.48;;;5.30;99.90;;;;;;4989793;28;20312;-79
2022/01/11 09:11:58;;;;;;;15.05;8.95;;;5.20;99.90;;;;;;4975029;28;20169;-79
2022/01/11 09:14:24;;;;;;;15.68;10.23;;;5.30;99.90;;;;;;4973292;28;20559;-81
2022/01/11 09:16:51;;;;;;;16.65;9.07;;;5.60;99.90;;;;;;4974046;28;20166;-80
2022/01/11 09:19:18;;;;;;;18.13;8.93;;;5.90;99.90;;;;;;4974122;28;20178;-81
2022/01/11 09:21:44;;;;;;;13.70;9.10;;;5.80;99.90;;;;;;4975013;28;20221;-83
2022/01/11 09:24:12;;;;;;;16.15;8.77;;;5.80;99.90;;;;;;4986367;28;20699;-82
2022/01/11 09:26:41;;;;;;;17.50;8.90;;;5.90;99.90;;;;;;4988322;28;20182;-81
2022/01/11 09:29:07;;;;;;;18.20;9.65;;;5.90;99.90;;;;;;4974687;28;20205;-81
2022/01/11 09:31:33;;;;;;;17.20;10.45;;;6.10;99.90;;;;;;4974201;28;20185;-82
2022/01/11 09:33:59;;;;;;;13.18;8.50;;;6.20;99.90;;;;;;4974072;28;20178;-82
2022/01/11 09:36:26;;;;;;;15.88;9.23;;;6.30;99.90;;;;;;4974708;28;20212;-87
2022/01/11 09:38:52;;;;;;;16.33;8.13;;;6.40;99.90;;;;;;4974561;28;20599;-82
2022/01/11 09:41:18;;;;;;;15.13;8.55;;;6.30;99.90;;;;;;4973604;28;20323;-79
2022/01/11 09:43:44;;;;;;;11.27;8.23;;;6.20;99.90;;;;;;4973230;28;20178;-82
2022/01/11 09:46:09;;;;;;;14.65;8.50;;;6.30;99.90;;;;;;4972031;28;20508;-80
2022/01/11 09:48:35;;;;;;;12.18;8.07;;;6.50;99.90;;;;;;4988889;28;20228;-80
2022/01/11 09:51:02;;;;;;;13.52;9.07;;;6.50;99.90;;;;;;4973872;28;20256;-80
2022/01/11 09:53:28;;;;;;;14.82;9.15;;;6.50;99.90;;;;;;4974037;28;20190;-80
2022/01/11 09:55:54;;;;;;;15.20;9.40;;;6.60;99.90;;;;;;4973937;28;20169;-79
2022/01/11 09:58:20;;;;;;;16.95;8.55;;;6.50;99.90;;;;;;4974165;28;20679;-79
2022/01/11 10:00:46;;;;;;;16.65;8.20;;;6.50;99.90;;;;;;4973732;28;20190;-81
2022/01/11 10:03:14;;;;;;;11.30;8.27;;;6.40;99.90;;;;;;4988753;28;20197;-80
2022/01/11 10:05:40;;;;;;;13.65;8.98;;;6.30;99.90;;;;;;4973967;28;20615;-80
2022/01/11 10:08:27;;;;;;;12.27;8.18;;;6.60;99.90;;;;;;4973569;28;20221;-81
2022/01/11 10:10:54;;;;;;;16.70;8.48;;;7.00;99.90;;;;;;4988232;28;20551;-81
2022/01/11 10:13:29;;;;;;;12.40;8.05;;;7.40;99.90;;;;;;4973662;28;20623;-79
2022/01/11 10:15:55;;;;;;;13.32;8.10;;;7.20;99.90;;;;;;4988606;28;20192;-80
2022/01/11 10:18:37;;;;;;;14.65;7.88;;;7.20;99.90;;;;;;4973540;28;20181;-81
2022/01/11 10:21:50;;;;;;;18.10;8.10;;;7.30;99.90;;;;;;4973477;28;20642;-81
2022/01/11 10:24:25;;;;;;;21.73;8.05;;;7.30;99.90;;;;;;4951867;28;20190;-80
2022/01/11 10:26:53;;;;;;;16.02;7.95;;;7.60;99.90;;;;;;4963748;28;20177;-80
2022/01/11 10:29:37;;;;;;;10.85;6.95;;;7.60;99.90;;;;;;4969402;28;20613;-79
2022/01/11 10:32:27;;;;;;;11.68;7.20;;;7.80;99.90;;;;;;4981101;28;20193;-79
2022/01/11 10:35:02;;;;;;;14.50;7.82;;;7.80;99.90;;;;;;4971927;28;20166;-80
2022/01/11 10:37:39;;;;;;;10.02;7.22;;;8.10;99.90;;;;;;4970078;28;20223;-80
2022/01/11 10:40:15;;;;;;;10.70;7.93;;;8.20;99.90;;;;;;4985260;28;20258;-80
2022/01/11 10:42:50;;;;;;;20.83;7.53;;;8.50;99.90;;;;;;4985609;28;20178;-80
2022/01/11 10:45:24;;;;;;;10.10;6.50;;;8.60;99.90;;;;;;4971982;28;20257;-80
2022/01/11 10:47:53;;;;;;;14.27;7.18;;;8.60;99.90;;;;;;4971959;28;20535;-80
2022/01/11 10:50:27;;;;;;;10.13;7.13;;;8.40;99.90;;;;;;4987182;28;20198;-79
2022/01/11 10:52:53;;;;;;;15.82;7.72;;;8.30;99.90;;;;;;4987454;28;20577;-79
2022/01/11 10:55:23;;;;;;;11.13;7.18;;;8.50;99.90;;;;;;4958588;28;20166;-80
2022/01/11 10:57:54;;;;;;;10.02;6.65;;;8.30;99.90;;;;;;4969191;28;20177;-80
2022/01/11 11:00:26;;;;;;;9.07;6.47;;;8.30;99.90;;;;;;4972056;28;20340;-78
2022/01/11 11:02:59;;;;;;;12.80;7.25;;;8.60;99.90;;;;;;4971975;28;20200;-80
2022/01/11 11:05:31;;;;;;;10.80;5.90;;;8.70;99.90;;;;;;4972259;28;20650;-79
2022/01/11 11:08:02;;;;;;;9.40;5.25;;;9.10;99.90;;;;;;4972999;28;20255;-80
2022/01/11 11:10:32;;;;;;;11.65;7.13;;;9.10;99.90;;;;;;4987862;28;20198;-80
2022/01/11 11:12:58;;;;;;;10.38;7.38;;;8.90;99.90;;;;;;4973841;28;20526;-80
2022/01/11 11:15:39;;;;;;;11.35;6.95;;;9.00;99.90;;;;;;4973302;28;20170;-80
2022/01/11 11:18:07;;;;;;;17.75;6.57;;;9.10;99.90;;;;;;4988059;28;20265;-82
2022/01/11 11:20:35;;;;;;;13.48;6.75;;;9.00;99.90;;;;;;4988109;28;20224;-82
2022/01/11 11:23:02;;;;;;;13.77;5.78;;;9.20;99.90;;;;;;4975459;28;20178;-80
2022/01/11 11:25:28;;;;;;;12.02;6.40;;;9.20;99.90;;;;;;4991191;28;20174;-81
2022/01/11 11:27:55;;;;;;;11.18;6.03;;;9.20;99.90;;;;;;4976609;28;20253;-80
2022/01/11 11:30:20;;;;;;;12.90;5.63;;;9.20;99.90;;;;;;4991546;28;20194;-79
2022/01/11 11:32:49;;;;;;;13.10;5.70;;;9.20;99.90;;;;;;4976844;28;20177;-80
2022/01/11 11:35:16;;;;;;;13.57;6.13;;;9.30;99.90;;;;;;4976802;28;20170;-79
2022/01/11 11:37:45;;;;;;;8.88;5.43;;;9.20;99.90;;;;;;4976262;28;20162;-79
2022/01/11 11:40:18;;;;;;;6.38;4.05;;;9.10;99.90;;;;;;4976635;28;20305;-79
2022/01/11 11:42:45;;;;;;;8.40;5.07;;;8.80;99.90;;;;;;4991732;28;20170;-80
2022/01/11 11:45:16;;;;;;;14.85;6.03;;;8.80;99.90;;;;;;4991616;28;20181;-80
2022/01/11 11:47:42;;;;;;;8.45;5.22;;;8.80;99.90;;;;;;4976483;28;20192;-80
2022/01/11 11:50:14;;;;;;;8.30;4.72;;;8.80;99.90;;;;;;4991330;28;20296;-79
2022/01/11 11:52:42;;;;;;;8.80;4.25;;;8.80;99.90;;;;;;4974799;28;20265;-81
2022/01/11 11:55:22;;;;;;;11.07;4.47;;;8.70;99.90;;;;;;4976322;28;20661;-80
2022/01/11 11:57:55;;;;;;;7.63;3.88;;;8.60;99.90;;;;;;4972674;28;20226;-79
2022/01/11 12:00:23;;;;;;;8.70;4.07;;;8.50;99.90;;;;;;4973622;28;20293;-79
2022/01/11 12:02:52;;;;;;;9.50;4.03;;;8.40;99.90;;;;;;4975931;28;20177;-80
2022/01/11 12:05:36;;;;;;;6.65;4.28;;;8.60;99.90;;;;;;4974590;28;20170;-81
2022/01/11 12:08:36;;;;;;;8.02;4.22;;;8.70;99.90;;;;;;4975218;28;20256;-81
2022/01/11 12:11:08;;;;;;;9.27;4.32;;;8.80;99.90;;;;;;4975306;28;20201;-81
2022/01/11 12:13:48;;;;;;;6.07;4.03;;;8.80;99.90;;;;;;4975438;28;20165;-81
2022/01/11 12:16:25;;;;;;;10.65;4.43;;;8.80;99.90;;;;;;4975774;28;20178;-81
2022/01/11 12:18:58;;;;;;;8.90;5.40;;;8.90;99.90;;;;;;4976226;28;20650;-80
2022/01/11 12:21:26;;;;;;;11.82;4.57;;;8.90;99.90;;;;;;4975793;28;20209;-82
2022/01/11 12:23:54;;;;;;;4.85;4.15;;;9.20;99.90;;;;;;4975672;28;20677;-82
2022/01/11 12:26:28;;;;;;;16.92;5.43;;;9.20;99.90;;;;;;4975257;28;20527;-82
2022/01/11 12:29:03;;;;;;;17.80;5.00;;;9.10;99.90;;;;;;4974426;28;20229;-82
2022/01/11 12:31:30;;;;;;;7.35;4.57;;;9.30;99.90;;;;;;4973484;28;20237;-81
2022/01/11 12:33:56;;;;;;;11.32;4.68;;;9.30;99.90;;;;;;4973580;28;20185;-81
2022/01/11 12:36:22;;;;;;;8.82;4.57;;;9.20;99.90;;;;;;4974963;28;20174;-82
2022/01/11 12:39:03;;;;;;;7.30;3.88;;;9.00;99.90;;;;;;4988472;28;20180;-87
2022/01/11 12:41:34;;;;;;;8.93;4.65;;;8.90;99.90;;;;;;4974739;28;20247;-82
2022/01/11 12:47:11;;;;;;;4.53;3.60;;;8.90;99.90;;;;;;4974988;28;20214;-81
2022/01/11 12:49:41;;;;;;;4.15;3.42;;;8.80;99.90;;;;;;4953591;28;20214;-82
2022/01/11 12:52:12;;;;;;;11.93;3.50;;;8.70;99.90;;;;;;4970029;28;20229;-81
2022/01/11 12:54:47;;;;;;;5.43;4.22;;;8.80;99.90;;;;;;4955477;28;20202;-81
2022/01/11 12:57:15;;;;;;;11.05;4.30;;;8.80;99.90;;;;;;4955342;28;20162;-79